Time;durP1;ratioP1;P1;durP2;ratioP2;P2;SDS_P1;SDS_P2;PMS_P1;PMS_P2;Temp;Humidity;BMP_temperature;BMP_pressure;BME280_temperature;BME280_humidity;BME280_pressure;Samples;Min_cycle;Max_cycle;Signal;HPM_P1;HPM_P2
2022/10/01 00:01:14;;;;;;;58.60;8.27;;;;;;;8.24;100.00;98117.75;2642347;27;20482;-78
2022/10/01 00:02:35;;;;;;;71.40;8.73;;;;;;;8.44;100.00;98104.22;2643179;27;20047;-77
2022/10/01 00:03:52;;;;;;;51.78;7.70;;;;;;;8.34;100.00;98112.25;2643728;27;20051;-77
2022/10/01 00:05:11;;;;;;;51.95;7.75;;;;;;;8.43;100.00;98118.16;2642416;27;20051;-78
2022/10/01 00:06:27;;;;;;;32.83;6.88;;;;;;;8.40;100.00;98113.88;2644195;27;20058;-78
2022/10/01 00:07:44;;;;;;;39.58;7.88;;;;;;;8.45;100.00;98117.25;2644936;27;20054;-78
2022/10/01 00:08:59;;;;;;;46.45;8.27;;;;;;;8.30;100.00;98121.06;2642635;27;20049;-78
2022/10/01 00:10:16;;;;;;;51.67;7.50;;;;;;;8.08;100.00;98125.06;2644302;27;20086;-78
2022/10/01 00:11:33;;;;;;;47.53;7.80;;;;;;;8.18;100.00;98117.00;2631693;28;20671;-81
2022/10/01 00:12:48;;;;;;;29.65;6.78;;;;;;;8.23;100.00;98123.88;2637311;27;20398;-78
2022/10/01 00:14:04;;;;;;;66.90;8.40;;;;;;;8.14;100.00;98114.50;2643692;27;20040;-78
2022/10/01 00:15:20;;;;;;;39.88;8.27;;;;;;;8.01;100.00;98117.41;2641566;27;20493;-81
2022/10/01 00:16:36;;;;;;;28.65;7.30;;;;;;;8.01;100.00;98122.63;2643000;27;20055;-79
2022/10/01 00:17:52;;;;;;;52.20;7.63;;;;;;;8.05;100.00;98121.63;2644189;27;20508;-78
2022/10/01 00:19:11;;;;;;;30.60;7.07;;;;;;;8.16;100.00;98117.94;2643548;27;20047;-78
2022/10/01 00:20:27;;;;;;;22.55;7.60;;;;;;;8.31;100.00;98112.34;2642935;27;20050;-78
2022/10/01 00:21:43;;;;;;;30.95;7.13;;;;;;;8.30;100.00;98115.84;2643698;27;20131;-80
2022/10/01 00:22:58;;;;;;;44.95;7.82;;;;;;;8.33;100.00;98118.38;2644334;27;20048;-78
2022/10/01 00:24:14;;;;;;;31.33;7.28;;;;;;;8.34;100.00;98116.66;2643209;27;20581;-78
2022/10/01 00:25:30;;;;;;;57.60;8.40;;;;;;;8.47;100.00;98123.28;2642977;27;20103;-79
2022/10/01 00:26:46;;;;;;;77.75;8.77;;;;;;;8.41;100.00;98119.97;2644760;27;20058;-78
2022/10/01 00:28:02;;;;;;;65.53;11.50;;;;;;;8.43;100.00;98120.78;2642335;27;20089;-79
2022/10/01 00:29:18;;;;;;;49.25;7.60;;;;;;;8.39;100.00;98120.00;2644726;27;20192;-79
2022/10/01 00:30:33;;;;;;;68.88;8.40;;;;;;;8.41;100.00;98114.75;2643711;27;20047;-78
2022/10/01 00:31:49;;;;;;;42.70;7.50;;;;;;;8.44;100.00;98119.88;2644433;27;20486;-87
2022/10/01 00:33:04;;;;;;;40.60;8.05;;;;;;;8.41;100.00;98122.56;2643438;27;20047;-79
2022/10/01 00:34:20;;;;;;;47.65;7.50;;;;;;;8.33;100.00;98113.16;2644710;27;20042;-78
2022/10/01 00:35:36;;;;;;;43.13;7.60;;;;;;;8.37;100.00;98119.16;2643531;27;20436;-80
2022/10/01 00:36:52;;;;;;;22.58;6.75;;;;;;;8.42;100.00;98116.47;2644262;27;20063;-77
2022/10/01 00:38:08;;;;;;;23.95;7.22;;;;;;;8.30;100.00;98112.38;2643850;27;20051;-78
2022/10/01 00:39:23;;;;;;;34.03;7.45;;;;;;;8.29;100.00;98121.97;2641763;27;20054;-78
2022/10/01 00:40:39;;;;;;;22.83;7.00;;;;;;;8.37;100.00;98116.56;2642052;27;20422;-79
2022/10/01 00:41:55;;;;;;;14.55;6.93;;;;;;;8.26;100.00;98114.22;2642082;27;20517;-79
2022/10/01 00:43:26;;;;;;;15.65;6.97;;;;;;;8.18;100.00;98121.34;2642784;27;20047;-78
2022/10/01 00:44:42;;;;;;;28.85;7.13;;;;;;;8.11;100.00;98123.25;2643328;27;20425;-78
2022/10/01 00:46:12;;;;;;;33.70;8.65;;;;;;;8.05;100.00;98123.41;2644265;27;20051;-79
2022/10/01 00:47:33;;;;;;;42.85;9.07;;;;;;;7.93;100.00;98123.69;2643272;27;20054;-79
2022/10/01 00:48:58;;;;;;;28.30;8.57;;;;;;;7.98;100.00;98125.28;2642561;27;20157;-78
2022/10/01 00:50:18;;;;;;;35.38;7.97;;;;;;;8.13;100.00;98120.63;2643736;27;20263;-80
2022/10/01 00:51:39;;;;;;;52.67;8.38;;;;;;;8.12;100.00;98118.91;2642649;27;20643;-79
2022/10/01 00:53:13;;;;;;;41.72;9.55;;;;;;;8.23;100.00;98118.66;2642196;27;20058;-80
2022/10/01 00:54:32;;;;;;;35.67;8.50;;;;;;;8.46;100.00;98110.25;2644045;27;20450;-79
2022/10/01 00:55:54;;;;;;;43.22;8.32;;;;;;;8.42;100.00;98108.63;2643188;27;20513;-78
2022/10/01 00:57:14;;;;;;;65.82;9.77;;;;;;;8.45;100.00;98105.94;2642204;27;20077;-79
2022/10/01 00:58:30;;;;;;;89.97;9.57;;;;;;;8.04;100.00;98114.72;2642235;27;20054;-81
2022/10/01 00:59:46;;;;;;;87.80;9.70;;;;;;;8.14;100.00;98117.97;2641274;27;20138;-79
2022/10/01 01:01:02;;;;;;;68.97;9.27;;;;;;;7.84;100.00;98109.94;2644546;27;20461;-79
2022/10/01 01:02:18;;;;;;;76.40;9.10;;;;;;;7.66;100.00;98112.97;2644593;27;20414;-81
2022/10/01 01:03:34;;;;;;;49.63;8.60;;;;;;;7.96;100.00;98110.56;2642510;27;20087;-78
2022/10/01 01:04:50;;;;;;;66.97;9.23;;;;;;;8.17;100.00;98115.31;2643356;27;20047;-79
2022/10/01 01:06:06;;;;;;;51.42;9.10;;;;;;;8.16;100.00;98105.72;2641507;27;20059;-79
2022/10/01 01:07:22;;;;;;;60.92;8.80;;;;;;;8.25;100.00;98104.69;2643778;27;20055;-80
2022/10/01 01:08:38;;;;;;;52.28;8.93;;;;;;;8.10;100.00;98115.44;2641114;27;20048;-79
2022/10/01 01:09:54;;;;;;;57.67;9.10;;;;;;;8.09;100.00;98113.75;2641170;27;20202;-80
2022/10/01 01:11:22;;;;;;;69.88;8.60;;;;;;;8.10;100.00;98118.94;2641679;27;20051;-79
2022/10/01 01:12:55;;;;;;;49.60;8.30;;;;;;;8.18;100.00;98103.09;2642707;27;20047;-79
2022/10/01 01:14:24;;;;;;;56.15;8.95;;;;;;;7.96;100.00;98106.22;2642470;27;20398;-79
2022/10/01 01:15:54;;;;;;;49.38;8.75;;;;;;;7.85;100.00;98114.25;2642844;27;20082;-79
2022/10/01 01:17:19;;;;;;;28.77;7.60;;;;;;;7.87;100.00;98109.03;2642803;27;20047;-79
2022/10/01 01:18:41;;;;;;;47.28;8.45;;;;;;;7.99;100.00;98113.09;2642664;27;20553;-80
2022/10/01 01:20:06;;;;;;;;;;;;;;;7.99;100.00;98111.38;2644274;27;20043;-79
2022/10/01 01:21:28;;;;;;;71.97;8.38;;;;;;;7.93;100.00;98106.28;2640953;27;19970;-79
2022/10/01 01:22:51;;;;;;;79.70;9.05;;;;;;;7.79;100.00;98104.00;2643157;27;20521;-79
2022/10/01 01:24:44;;;;;;;74.10;8.55;;;;;;;7.83;100.00;98105.63;2643117;27;20047;-80
2022/10/01 01:26:30;;;;;;;64.25;8.00;;;;;;;7.69;100.00;98102.47;2643408;27;20047;-79
2022/10/01 01:28:08;;;;;;;76.55;9.82;;;;;;;7.89;100.00;98102.03;2630615;27;20051;-79
2022/10/01 01:30:02;;;;;;;88.68;10.73;;;;;;;8.01;100.00;98103.50;2642147;27;20044;-80
2022/10/01 01:31:23;;;;;;;17.23;6.90;;;;;;;8.09;100.00;98098.97;2642986;27;20058;-79
2022/10/01 01:32:49;;;;;;;29.88;8.93;;;;;;;8.03;100.00;98086.94;2643272;27;20082;-80
2022/10/01 01:34:11;;;;;;;25.02;7.95;;;;;;;7.99;100.00;98090.50;2643827;27;20071;-79
2022/10/01 01:35:32;;;;;;;19.35;7.53;;;;;;;8.05;100.00;98092.97;2643621;27;20099;-79
2022/10/01 01:36:57;;;;;;;22.85;8.55;;;;;;;7.95;100.00;98088.84;2643503;27;20448;-79
2022/10/01 01:38:18;;;;;;;35.05;8.90;;;;;;;8.06;100.00;98084.25;2641136;27;20604;-80
2022/10/01 01:39:34;;;;;;;68.32;9.05;;;;;;;8.04;100.00;98085.19;2641142;27;20491;-80
2022/10/01 01:40:55;;;;;;;22.73;8.07;;;;;;;7.79;100.00;98077.94;2642655;27;20062;-79
2022/10/01 01:42:20;;;;;;;50.65;10.45;;;;;;;7.75;100.00;98076.25;2643081;27;20112;-79
2022/10/01 01:43:40;;;;;;;34.35;8.95;;;;;;;7.74;100.00;98077.16;2641104;27;20237;-78
2022/10/01 01:44:59;;;;;;;38.17;8.80;;;;;;;7.90;100.00;98075.94;2641384;27;20478;-79
2022/10/01 01:46:17;;;;;;;44.80;8.52;;;;;;;7.85;100.00;98076.94;2642803;27;20089;-79
2022/10/01 01:47:34;;;;;;;20.90;7.55;;;;;;;7.91;100.00;98069.84;2643026;27;20066;-79
2022/10/01 01:48:52;;;;;;;31.85;8.90;;;;;;;7.95;100.00;98065.38;2643874;27;20585;-80
2022/10/01 01:50:10;;;;;;;33.65;8.70;;;;;;;7.90;100.00;98068.13;2641596;27;20044;-79
2022/10/01 01:51:41;;;;;;;17.10;9.07;;;;;;;7.92;100.00;98068.06;2642247;27;20047;-79
2022/10/01 01:53:13;;;;;;;17.15;8.77;;;;;;;7.88;100.00;98064.66;2641495;27;20051;-79
2022/10/01 01:54:46;;;;;;;16.25;8.50;;;;;;;7.82;100.00;98072.66;2598162;28;20384;-80
2022/10/01 01:56:04;;;;;;;14.80;7.90;;;;;;;7.99;100.00;98069.66;2639644;27;20055;-80
2022/10/01 01:57:20;;;;;;;15.35;8.25;;;;;;;7.99;100.00;98064.44;2642606;28;20051;-81
2022/10/01 01:58:38;;;;;;;17.50;9.40;;;;;;;7.96;100.00;98061.91;2629635;28;20215;-80
2022/10/01 01:59:54;;;;;;;15.75;9.02;;;;;;;7.97;100.00;98061.00;2634571;28;20096;-79
2022/10/01 02:01:37;;;;;;;17.08;8.68;;;;;;;7.90;100.00;98062.91;2643716;27;20445;-80
2022/10/01 02:02:55;;;;;;;24.15;8.88;;;;;;;7.94;100.00;98061.06;2643607;27;20561;-78
2022/10/01 02:04:19;;;;;;;23.77;9.00;;;;;;;8.00;100.00;98063.53;2641461;27;20055;-81
2022/10/01 02:05:42;;;;;;;21.38;8.52;;;;;;;8.04;100.00;98066.94;2642389;27;20047;-77
2022/10/01 02:07:14;;;;;;;15.10;8.45;;;;;;;7.95;100.00;98065.38;2641399;27;20044;-78
2022/10/01 02:08:46;;;;;;;22.35;8.75;;;;;;;8.05;100.00;98061.69;2641735;27;20134;-80
2022/10/01 02:10:40;;;;;;;20.02;8.60;;;;;;;8.11;100.00;98070.25;2641217;27;20391;-78
2022/10/01 02:12:11;;;;;;;23.02;8.23;;;;;;;8.00;100.00;98067.88;2642901;27;20043;-79
2022/10/01 02:13:49;;;;;;;21.17;7.88;;;;;;;7.80;100.00;98070.94;2642061;27;20146;-78
2022/10/01 02:15:36;;;;;;;15.65;7.93;;;;;;;7.80;100.00;98061.41;2642839;27;20062;-81
2022/10/01 02:17:03;;;;;;;21.27;7.78;;;;;;;7.73;100.00;98067.63;2643776;27;20069;-78
2022/10/01 02:18:33;;;;;;;30.42;9.20;;;;;;;7.53;100.00;98063.72;2640141;27;20536;-78
2022/10/01 02:20:34;;;;;;;25.00;7.75;;;;;;;7.54;100.00;98069.78;2641154;28;20163;-79
2022/10/01 02:22:10;;;;;;;18.35;7.68;;;;;;;7.71;100.00;98066.81;2639971;28;20081;-79
2022/10/01 02:23:34;;;;;;;26.73;7.53;;;;;;;7.51;100.00;98069.84;2643480;28;20488;-80
2022/10/01 02:24:55;;;;;;;21.58;7.90;;;;;;;7.75;100.00;98058.91;2641990;28;20134;-80
2022/10/01 02:26:16;;;;;;;22.75;7.32;;;;;;;7.81;100.00;98063.13;2643574;28;20074;-79
2022/10/01 02:27:39;;;;;;;44.55;8.32;;;;;;;8.04;100.00;98056.50;2643529;28;20055;-79
2022/10/01 02:29:00;;;;;;;14.68;7.13;;;;;;;8.01;100.00;98059.16;2642170;28;20421;-80
2022/10/01 02:30:16;;;;;;;33.85;8.38;;;;;;;7.83;100.00;98057.88;2642532;28;20135;-79
2022/10/01 02:31:32;;;;;;;35.65;7.97;;;;;;;7.88;100.00;98058.63;2641231;28;20054;-79
2022/10/01 02:32:49;;;;;;;20.00;8.35;;;;;;;7.76;100.00;98065.81;2640718;28;20338;-79
2022/10/01 02:34:06;;;;;;;25.20;7.95;;;;;;;7.83;100.00;98055.28;2643798;28;20053;-78
2022/10/01 02:35:22;;;;;;;18.50;7.90;;;;;;;7.86;100.00;98058.63;2641448;28;20109;-83
2022/10/01 02:36:40;;;;;;;17.02;7.95;;;;;;;8.01;100.00;98067.00;2641225;28;20085;-78
2022/10/01 02:38:00;;;;;;;25.75;8.07;;;;;;;7.89;100.00;98053.38;2640367;28;20052;-79
2022/10/01 02:39:18;;;;;;;29.60;8.52;;;;;;;8.13;100.00;98063.25;2641089;28;20685;-78
2022/10/01 02:40:38;;;;;;;41.95;9.55;;;;;;;8.15;100.00;98054.47;2641547;28;20047;-80
2022/10/01 02:41:55;;;;;;;25.27;8.32;;;;;;;8.12;100.00;98056.31;2641528;28;20093;-83
2022/10/01 02:43:28;;;;;;;28.38;8.30;;;;;;;8.15;100.00;98061.47;2640613;28;20467;-79
2022/10/01 02:44:44;;;;;;;;;;;;;;;8.09;100.00;98059.84;2643076;28;20096;-79
2022/10/01 02:46:08;;;;;;;28.80;7.55;;;;;;;8.13;100.00;98058.03;2641402;28;20005;-80
2022/10/01 02:47:32;;;;;;;35.63;7.57;;;;;;;8.03;100.00;98063.47;2642901;28;20435;-79
2022/10/01 02:48:48;;;;;;;25.20;7.80;;;;;;;8.05;100.00;98061.69;2642357;28;20051;-80
2022/10/01 02:50:06;;;;;;;33.90;7.30;;;;;;;8.05;100.00;98056.47;2641297;28;20047;-79
2022/10/01 02:51:46;;;;;;;11.88;6.47;;;;;;;7.97;100.00;98054.94;2640550;28;20409;-78
2022/10/01 02:53:07;;;;;;;22.35;8.10;;;;;;;8.05;100.00;98053.84;2643353;28;20285;-80
2022/10/01 02:54:33;;;;;;;28.00;7.35;;;;;;;8.03;100.00;98049.56;2640892;28;20059;-79
2022/10/01 02:55:51;;;;;;;15.38;7.47;;;;;;;7.85;100.00;98058.69;2644308;28;20647;-80
2022/10/01 02:57:21;;;;;;;15.82;6.97;;;;;;;7.83;100.00;98053.50;2630241;28;20497;-80
2022/10/01 02:58:37;;;;;;;25.17;7.53;;;;;;;7.57;100.00;98059.31;2636135;28;20480;-80
2022/10/01 03:00:02;;;;;;;39.65;9.88;;;;;;;7.65;100.00;98054.78;2643008;28;20044;-80
2022/10/01 03:01:17;;;;;;;34.50;7.57;;;;;;;7.69;100.00;98061.66;2642617;28;20071;-79
2022/10/01 03:02:33;;;;;;;80.75;10.82;;;;;;;7.82;100.00;98054.41;2641033;28;20853;-79
2022/10/01 03:03:49;;;;;;;79.38;9.45;;;;;;;7.85;100.00;98048.28;2644183;28;20405;-79
2022/10/01 03:05:05;;;;;;;41.67;9.48;;;;;;;7.53;100.00;98052.44;2641423;28;20052;-80
2022/10/01 03:06:21;;;;;;;67.47;8.65;;;;;;;7.54;100.00;98057.63;2641574;28;20108;-79
2022/10/01 03:07:38;;;;;;;43.88;8.38;;;;;;;7.51;100.00;98055.09;2642801;28;20713;-83
2022/10/01 03:08:56;;;;;;;51.20;8.20;;;;;;;7.65;100.00;98051.31;2642199;27;20126;-79
2022/10/01 03:10:14;;;;;;;57.38;8.50;;;;;;;7.40;100.00;98050.09;2643036;27;20052;-79
2022/10/01 03:11:30;;;;;;;44.67;8.25;;;;;;;7.12;100.00;98048.06;2642649;27;20047;-79
2022/10/01 03:12:45;;;;;;;57.25;8.85;;;;;;;7.23;100.00;98049.59;2643168;27;20044;-79
2022/10/01 03:14:03;;;;;;;64.78;9.73;;;;;;;7.51;100.00;98046.41;2643504;27;20130;-85
2022/10/01 03:15:19;;;;;;;53.40;8.70;;;;;;;7.59;100.00;98047.94;2642517;27;20411;-79
2022/10/01 03:16:35;;;;;;;48.72;8.18;;;;;;;7.52;100.00;98051.59;2644486;27;20077;-80
2022/10/01 03:17:52;;;;;;;40.53;8.40;;;;;;;7.19;100.00;98043.59;2642988;27;20047;-80
2022/10/01 03:19:07;;;;;;;17.30;7.78;;;;;;;7.63;100.00;98043.53;2644908;27;20047;-81
2022/10/01 03:20:23;;;;;;;29.10;7.90;;;;;;;7.56;100.00;98047.19;2644204;27;20105;-79
2022/10/01 03:21:39;;;;;;;13.63;8.20;;;;;;;7.58;100.00;98043.63;2645662;27;20043;-80
2022/10/01 03:22:54;;;;;;;101.05;12.85;;;;;;;7.70;100.00;98041.66;2645567;27;20436;-80
2022/10/01 03:24:10;;;;;;;111.93;12.30;;;;;;;7.77;100.00;98043.22;2644778;27;20048;-80
2022/10/01 03:25:26;;;;;;;138.25;15.65;;;;;;;7.83;100.00;98037.03;2646163;27;20075;-83
2022/10/01 03:26:41;;;;;;;111.22;12.43;;;;;;;7.86;100.00;98044.75;2645527;27;20051;-80
2022/10/01 03:27:57;;;;;;;16.02;8.45;;;;;;;7.70;100.00;98044.25;2642222;27;20172;-80
2022/10/01 03:29:14;;;;;;;75.75;9.88;;;;;;;7.70;100.00;98046.84;2642047;27;20468;-81
2022/10/01 03:30:29;;;;;;;158.55;14.52;;;;;;;7.91;100.00;98040.28;2644018;27;20066;-79
2022/10/01 03:31:45;;;;;;;68.03;9.75;;;;;;;7.97;100.00;98039.28;2642525;27;20478;-79
2022/10/01 03:33:00;;;;;;;23.25;9.05;;;;;;;7.97;100.00;98049.72;2644209;27;20047;-79
2022/10/01 03:34:16;;;;;;;88.38;11.32;;;;;;;7.95;100.00;98047.13;2644427;27;20047;-78
2022/10/01 03:35:32;;;;;;;133.48;14.98;;;;;;;7.98;100.00;98041.88;2642622;27;20453;-83
2022/10/01 03:36:48;;;;;;;164.25;13.82;;;;;;;7.85;100.00;98043.06;2643652;27;20043;-79
2022/10/01 03:38:04;;;;;;;132.35;12.55;;;;;;;7.91;100.00;98045.50;2634033;28;20510;-79
2022/10/01 03:39:20;;;;;;;129.45;14.25;;;;;;;8.01;100.00;98049.63;2637883;27;20104;-79
2022/10/01 03:40:37;;;;;;;136.13;13.68;;;;;;;8.01;100.00;98048.75;2644852;27;20052;-80
2022/10/01 03:41:53;;;;;;;134.73;14.20;;;;;;;7.94;100.00;98045.41;2643867;27;20065;-79
2022/10/01 03:43:08;;;;;;;62.42;10.73;;;;;;;7.61;100.00;98054.00;2644508;27;20448;-79
2022/10/01 03:44:24;;;;;;;73.60;11.02;;;;;;;7.45;100.00;98050.88;2644694;27;20051;-79
2022/10/01 03:45:40;;;;;;;104.55;11.45;;;;;;;7.83;100.00;98050.06;2643129;27;20043;-81
2022/10/01 03:46:56;;;;;;;58.95;10.43;;;;;;;7.75;100.00;98042.38;2642277;27;20534;-80
2022/10/01 03:48:11;;;;;;;63.67;10.50;;;;;;;7.70;100.00;98042.53;2644346;27;20047;-79
2022/10/01 03:49:26;;;;;;;23.88;8.77;;;;;;;7.79;100.00;98044.06;2643515;27;20051;-78
2022/10/01 03:50:52;;;;;;;96.85;10.77;;;;;;;7.78;100.00;98040.56;2644473;27;20055;-79
2022/10/01 03:52:07;;;;;;;40.63;8.85;;;;;;;7.78;100.00;98042.34;2644363;27;20101;-79
2022/10/01 03:53:26;;;;;;;15.18;8.85;;;;;;;8.02;100.00;98043.50;2644078;27;20556;-79
2022/10/01 03:54:41;;;;;;;48.78;10.85;;;;;;;8.06;100.00;98037.31;2644469;27;20075;-80
2022/10/01 03:55:58;;;;;;;55.25;11.55;;;;;;;8.08;100.00;98032.06;2644293;27;20059;-79
2022/10/01 03:57:14;;;;;;;51.35;10.07;;;;;;;8.15;100.00;98027.56;2644296;27;20043;-83
2022/10/01 03:58:29;;;;;;;74.80;12.30;;;;;;;8.09;100.00;98028.56;2643405;27;20083;-79
2022/10/01 03:59:45;;;;;;;19.95;9.55;;;;;;;8.01;100.00;98028.75;2644615;27;20132;-79
2022/10/01 04:01:01;;;;;;;62.92;10.80;;;;;;;8.17;100.00;98028.38;2643093;27;20455;-79
2022/10/01 04:02:17;;;;;;;49.42;11.05;;;;;;;8.10;100.00;98026.81;2642952;27;20043;-79
2022/10/01 04:03:32;;;;;;;20.58;8.32;;;;;;;8.21;100.00;98032.59;2643777;27;20056;-79
2022/10/01 04:04:48;;;;;;;25.63;8.95;;;;;;;8.28;100.00;98026.38;2641884;27;20047;-79
2022/10/01 04:06:04;;;;;;;46.70;9.70;;;;;;;8.20;100.00;98031.78;2642576;27;20138;-79
2022/10/01 04:07:19;;;;;;;78.32;10.63;;;;;;;8.26;100.00;98022.06;2643044;27;20047;-79
2022/10/01 04:08:35;;;;;;;83.15;11.38;;;;;;;8.25;100.00;98030.78;2642384;27;20062;-83
2022/10/01 04:09:50;;;;;;;40.30;9.75;;;;;;;8.16;100.00;98019.69;2631645;28;20150;-83
2022/10/01 04:11:07;;;;;;;24.27;9.10;;;;;;;8.07;100.00;98012.09;2637564;27;20051;-80
2022/10/01 04:12:22;;;;;;;19.83;8.77;;;;;;;8.19;100.00;98018.75;2644878;27;20048;-79
2022/10/01 04:13:38;;;;;;;18.70;8.40;;;;;;;8.12;100.00;98019.81;2645783;27;20050;-79
2022/10/01 04:14:53;;;;;;;34.55;9.13;;;;;;;8.16;100.00;98027.50;2632383;28;20072;-79
2022/10/01 04:16:09;;;;;;;31.42;9.65;;;;;;;8.26;100.00;98009.91;2636530;27;20055;-80
2022/10/01 04:17:25;;;;;;;28.02;9.27;;;;;;;8.25;100.00;98017.75;2642537;27;20360;-84
2022/10/01 04:18:41;;;;;;;38.05;9.10;;;;;;;8.18;100.00;98019.66;2642676;27;20066;-79
2022/10/01 04:19:59;;;;;;;13.82;7.68;;;;;;;8.10;100.00;98022.47;2642791;27;20424;-78
2022/10/01 04:21:15;;;;;;;16.85;8.73;;;;;;;8.08;100.00;98016.44;2642508;27;20055;-79
2022/10/01 04:22:35;;;;;;;27.63;8.80;;;;;;;7.91;100.00;98022.03;2641763;27;20475;-80
2022/10/01 04:23:51;;;;;;;12.68;7.65;;;;;;;8.03;100.00;98019.16;2641876;27;20405;-79
2022/10/01 04:25:11;;;;;;;17.23;7.53;;;;;;;8.12;100.00;98017.22;2644026;27;20047;-79
2022/10/01 04:26:27;;;;;;;45.30;10.10;;;;;;;8.26;100.00;98022.94;2643388;27;20066;-79
2022/10/01 04:27:59;;;;;;;25.05;8.52;;;;;;;7.84;100.00;98029.16;2643479;27;20051;-80
2022/10/01 04:29:15;;;;;;;;;;;;;;;7.86;100.00;98021.31;2644799;27;20051;-79
2022/10/01 04:30:33;;;;;;;24.02;8.65;;;;;;;7.94;100.00;98016.75;2642605;27;19927;-79
2022/10/01 04:31:49;;;;;;;18.75;8.57;;;;;;;7.89;100.00;98016.88;2645287;27;20088;-80
2022/10/01 04:33:05;;;;;;;29.63;9.38;;;;;;;8.05;100.00;98019.13;2642174;27;20072;-82
2022/10/01 04:34:51;;;;;;;22.13;8.32;;;;;;;7.85;100.00;98015.22;2641818;27;20054;-79
2022/10/01 04:35:56;;;;;;;23.52;9.10;;;;;;;8.13;100.00;98018.94;2643142;27;20482;-79
2022/10/01 04:37:12;;;;;;;33.42;9.90;;;;;;;7.97;100.00;98008.88;2642396;27;20083;-80
2022/10/01 04:38:28;;;;;;;24.33;8.88;;;;;;;8.06;100.00;98010.41;2642827;27;20047;-80
2022/10/01 04:39:43;;;;;;;19.33;9.05;;;;;;;8.19;100.00;98011.81;2644074;27;20207;-79
2022/10/01 04:40:59;;;;;;;15.25;8.38;;;;;;;8.33;100.00;98003.63;2643261;27;20815;-79
2022/10/01 04:42:15;;;;;;;23.17;8.88;;;;;;;8.30;100.00;98001.09;2643298;27;20048;-79
2022/10/01 04:43:31;;;;;;;47.60;10.50;;;;;;;8.42;100.00;97999.06;2642056;27;20079;-78
2022/10/01 04:44:46;;;;;;;20.90;9.52;;;;;;;8.52;100.00;97990.13;2642982;27;20047;-79
2022/10/01 04:46:02;;;;;;;35.53;9.80;;;;;;;8.14;100.00;97989.34;2644827;27;20051;-79
2022/10/01 04:47:18;;;;;;;27.48;8.85;;;;;;;8.17;100.00;97997.09;2644784;27;20135;-79
2022/10/01 04:48:33;;;;;;;19.17;8.95;;;;;;;8.27;100.00;97992.47;2644231;27;20087;-79
2022/10/01 04:49:49;;;;;;;15.05;8.73;;;;;;;8.34;100.00;97984.47;2644844;27;20505;-79
2022/10/01 04:51:04;;;;;;;19.77;8.90;;;;;;;8.43;100.00;97993.78;2644524;27;20047;-80
2022/10/01 04:52:20;;;;;;;23.98;8.63;;;;;;;8.37;100.00;97990.47;2641656;27;20082;-79
2022/10/01 04:53:36;;;;;;;15.38;8.10;;;;;;;8.17;100.00;97986.66;2644388;27;20047;-79
2022/10/01 04:54:51;;;;;;;14.48;8.52;;;;;;;8.39;100.00;97991.31;2641704;27;20056;-83
2022/10/01 04:56:07;;;;;;;29.05;10.15;;;;;;;8.45;100.00;97992.03;2641740;27;20092;-79
2022/10/01 04:57:22;;;;;;;23.70;9.50;;;;;;;8.43;100.00;97990.34;2644578;27;20472;-80
2022/10/01 04:58:39;;;;;;;16.70;9.00;;;;;;;8.42;100.00;97988.63;2641414;27;20054;-79
2022/10/01 04:59:54;;;;;;;14.02;8.50;;;;;;;8.50;100.00;97978.84;2642502;27;20049;-79
2022/10/01 05:01:10;;;;;;;15.25;8.80;;;;;;;8.47;100.00;97984.13;2644176;27;20143;-81
2022/10/01 05:02:27;;;;;;;15.98;7.82;;;;;;;8.38;100.00;97987.84;2643668;27;20044;-81
2022/10/01 05:03:42;;;;;;;12.70;7.55;;;;;;;8.20;100.00;97981.34;2641558;27;20457;-80
2022/10/01 05:04:58;;;;;;;13.68;8.25;;;;;;;8.39;100.00;97983.50;2644789;27;20047;-79
2022/10/01 05:06:13;;;;;;;13.63;8.25;;;;;;;8.50;100.00;97984.06;2643880;27;20413;-79
2022/10/01 05:07:30;;;;;;;14.65;8.23;;;;;;;8.49;100.00;97977.13;2642034;27;20149;-79
2022/10/01 05:08:47;;;;;;;12.43;8.30;;;;;;;8.42;100.00;97983.41;2643050;27;20138;-80
2022/10/01 05:10:03;;;;;;;15.38;8.25;;;;;;;8.31;100.00;97983.66;2642220;27;20053;-79
2022/10/01 05:11:18;;;;;;;15.07;8.10;;;;;;;8.16;100.00;97983.19;2642919;27;20049;-83
2022/10/01 05:12:34;;;;;;;12.55;7.72;;;;;;;8.31;100.00;97983.66;2643358;27;20054;-80
2022/10/01 05:13:56;;;;;;;13.05;8.35;;;;;;;8.46;100.00;97985.03;2641631;27;20107;-79
2022/10/01 05:15:12;;;;;;;13.70;7.88;;;;;;;8.56;100.00;97977.84;2643827;27;20099;-79
2022/10/01 05:16:28;;;;;;;14.30;8.35;;;;;;;8.64;100.00;97981.09;2641699;27;20069;-79
2022/10/01 05:17:45;;;;;;;13.32;9.10;;;;;;;8.53;100.00;97983.16;2642952;27;20055;-79
2022/10/01 05:19:00;;;;;;;15.48;8.32;;;;;;;8.70;100.00;97985.31;2644146;27;20081;-80
2022/10/01 05:20:19;;;;;;;13.45;7.85;;;;;;;8.70;100.00;97980.09;2641136;27;20046;-80
2022/10/01 05:21:36;;;;;;;13.05;7.70;;;;;;;8.77;100.00;97981.59;2643648;27;20056;-79
2022/10/01 05:22:53;;;;;;;12.65;7.72;;;;;;;8.81;100.00;97977.16;2641605;27;20502;-79
2022/10/01 05:24:08;;;;;;;14.63;8.63;;;;;;;8.68;100.00;97977.50;2643288;27;20078;-79
2022/10/01 05:25:24;;;;;;;14.27;8.05;;;;;;;8.31;100.00;97981.94;2640611;27;20044;-83
2022/10/01 05:26:39;;;;;;;14.02;8.38;;;;;;;8.40;100.00;97982.59;2635704;27;20647;-80
2022/10/01 05:28:03;;;;;;;12.45;7.88;;;;;;;8.28;100.00;97983.75;2637198;27;20122;-80
2022/10/01 05:29:19;;;;;;;15.43;8.85;;;;;;;8.31;100.00;97983.66;2641096;27;20501;-79
2022/10/01 05:30:34;;;;;;;15.43;7.80;;;;;;;8.33;100.00;97987.13;2642409;27;20054;-79
2022/10/01 05:31:50;;;;;;;13.90;8.55;;;;;;;8.57;100.00;97985.63;2640164;27;20100;-80
2022/10/01 05:33:06;;;;;;;13.90;7.60;;;;;;;8.70;100.00;97983.53;2640777;27;20052;-80
2022/10/01 05:34:21;;;;;;;11.55;7.85;;;;;;;8.66;100.00;97986.25;2641847;27;20058;-79
2022/10/01 05:35:39;;;;;;;13.45;8.10;;;;;;;8.47;100.00;97981.53;2640801;27;20387;-79
2022/10/01 05:36:55;;;;;;;13.35;8.35;;;;;;;8.57;100.00;97980.41;2642539;27;20601;-80
2022/10/01 05:38:10;;;;;;;13.60;7.85;;;;;;;8.47;100.00;97991.97;2640038;27;20154;-79
2022/10/01 05:39:26;;;;;;;16.20;7.60;;;;;;;8.40;100.00;97982.59;2640778;27;20047;-79
2022/10/01 05:40:44;;;;;;;15.65;8.07;;;;;;;8.62;100.00;97983.75;2641369;27;20050;-79
2022/10/01 05:42:01;;;;;;;14.88;7.85;;;;;;;8.73;100.00;97980.84;2640854;27;20044;-79
2022/10/01 05:43:20;;;;;;;12.15;7.85;;;;;;;8.33;100.00;97985.34;2640996;27;20055;-80
2022/10/01 05:44:36;;;;;;;14.57;8.48;;;;;;;8.68;100.00;97976.66;2640715;27;20212;-79
2022/10/01 05:45:52;;;;;;;16.63;8.73;;;;;;;8.58;100.00;97979.53;2641283;27;20048;-79
2022/10/01 05:47:07;;;;;;;14.07;8.00;;;;;;;8.52;100.00;97982.31;2641019;27;20187;-80
2022/10/01 05:48:23;;;;;;;19.20;9.07;;;;;;;8.50;100.00;97984.06;2640925;27;20127;-78
2022/10/01 05:49:41;;;;;;;15.98;9.00;;;;;;;8.50;100.00;97980.59;2640508;27;20039;-79
2022/10/01 05:50:57;;;;;;;18.13;8.93;;;;;;;8.75;100.00;97988.63;2639288;27;20066;-79
2022/10/01 05:52:15;;;;;;;14.70;8.90;;;;;;;9.03;100.00;97980.00;2640672;27;20054;-79
2022/10/01 05:53:31;;;;;;;16.58;9.02;;;;;;;8.61;100.00;97986.41;2640311;27;20047;-78
2022/10/01 05:54:47;;;;;;;17.08;9.02;;;;;;;8.79;100.00;97981.56;2641081;27;20783;-80
2022/10/01 05:56:04;;;;;;;17.92;9.52;;;;;;;8.78;100.00;97980.69;2640021;27;20051;-79
2022/10/01 05:57:20;;;;;;;16.48;8.50;;;;;;;8.70;100.00;97980.91;2641518;27;20516;-80
2022/10/01 05:58:36;;;;;;;13.70;8.38;;;;;;;9.03;100.00;97982.63;2640805;27;20066;-79
2022/10/01 05:59:51;;;;;;;14.55;8.23;;;;;;;9.03;100.00;97987.84;2642447;27;20043;-83
2022/10/01 06:01:07;;;;;;;16.10;9.18;;;;;;;9.10;100.00;97986.78;2641373;27;20043;-82
2022/10/01 06:02:22;;;;;;;14.63;7.75;;;;;;;9.04;100.00;97979.97;2641623;27;20051;-81
2022/10/01 06:03:38;;;;;;;15.73;8.32;;;;;;;9.08;100.00;97991.19;2641750;27;20528;-79
2022/10/01 06:04:54;;;;;;;13.55;7.93;;;;;;;9.09;100.00;97979.84;2641377;27;20054;-85
2022/10/01 06:06:09;;;;;;;13.48;8.43;;;;;;;9.20;100.00;97982.13;2640344;27;20050;-79
2022/10/01 06:07:25;;;;;;;14.43;8.50;;;;;;;9.32;100.00;97979.16;2643286;27;20047;-79
2022/10/01 06:08:42;;;;;;;13.65;8.40;;;;;;;9.38;100.00;97982.47;2640765;27;20097;-79